createdAt,value
2018-01-08T00:00:21.396Z,2.80
2018-01-08T00:02:47.567Z,3.90
2018-01-08T00:05:14.503Z,3.37
2018-01-08T00:07:41.420Z,3.97
2018-01-08T00:10:07.584Z,3.00
2018-01-08T00:12:34.788Z,3.00
2018-01-08T00:15:00.976Z,2.90
2018-01-08T00:17:27.894Z,3.15
2018-01-08T00:19:54.108Z,2.60
2018-01-08T00:22:20.276Z,3.15
2018-01-08T00:24:46.433Z,3.12
2018-01-08T00:27:13.396Z,2.97
2018-01-08T00:29:39.581Z,3.30
2018-01-08T00:32:07.284Z,2.65
2018-01-08T00:34:33.512Z,3.15
2018-01-08T00:37:00.439Z,2.87
2018-01-08T00:39:27.356Z,2.80
2018-01-08T00:41:53.556Z,3.10
2018-01-08T00:44:20.471Z,3.20
2018-01-08T00:46:48.149Z,3.20
2018-01-08T00:49:14.360Z,3.08
2018-01-08T00:51:40.549Z,3.22
2018-01-08T00:54:06.717Z,3.92
2018-01-08T00:56:32.939Z,2.80
2018-01-08T00:58:59.108Z,3.30
2018-01-08T01:01:25.275Z,3.53
2018-01-08T01:03:52.527Z,3.65
2018-01-08T01:06:19.480Z,3.95
2018-01-08T01:08:45.708Z,3.17
2018-01-08T01:11:12.654Z,2.97
2018-01-08T01:13:39.686Z,3.20
2018-01-08T01:16:05.856Z,3.65
2018-01-08T01:18:32.059Z,3.33
2018-01-08T01:20:58.999Z,3.55
2018-01-08T01:23:25.188Z,3.10
2018-01-08T01:25:51.401Z,3.30
2018-01-08T01:28:17.577Z,3.60
2018-01-08T01:30:43.767Z,3.37
2018-01-08T01:33:10.724Z,3.78
2018-01-08T01:35:36.919Z,3.95
2018-01-08T01:38:03.120Z,2.78
2018-01-08T01:40:29.336Z,3.53
2018-01-08T01:42:55.517Z,3.10
2018-01-08T01:45:21.704Z,3.60
2018-01-08T01:47:47.889Z,4.15
2018-01-08T01:50:14.085Z,3.40
2018-01-08T01:52:40.288Z,3.40
2018-01-08T01:55:07.227Z,3.70
2018-01-08T01:57:33.428Z,4.18
2018-01-08T02:00:01.124Z,4.07
2018-01-08T02:02:28.092Z,3.42
2018-01-08T02:04:55.000Z,2.80
2018-01-08T02:07:21.228Z,3.45
2018-01-08T02:09:47.456Z,3.97
2018-01-08T02:12:13.629Z,3.30
2018-01-08T02:14:39.885Z,3.65
2018-01-08T02:17:06.108Z,3.30
2018-01-08T02:19:33.020Z,3.05
2018-01-08T02:21:59.185Z,3.00
2018-01-08T02:24:26.136Z,3.67
2018-01-08T02:26:53.068Z,3.40
2018-01-08T02:29:19.253Z,3.00
2018-01-08T02:31:45.478Z,2.62
2018-01-08T02:34:11.667Z,4.75
2018-01-08T02:36:37.839Z,3.05
2018-01-08T02:39:04.772Z,3.00
2018-01-08T02:41:31.684Z,3.65
2018-01-08T02:43:57.921Z,2.85
2018-01-08T02:46:24.139Z,3.40
2018-01-08T02:48:50.326Z,3.30
2018-01-08T02:51:16.510Z,2.50
2018-01-08T02:53:42.751Z,3.05
2018-01-08T02:56:08.944Z,3.00
2018-01-08T02:58:35.138Z,3.00
2018-01-08T03:01:01.362Z,2.58
2018-01-08T03:03:27.546Z,2.60
2018-01-08T03:05:55.475Z,3.10
2018-01-08T03:08:21.692Z,2.35
2018-01-08T03:10:47.876Z,2.92
2018-01-08T03:13:14.046Z,2.60
2018-01-08T03:15:42.745Z,2.55
2018-01-08T03:18:09.008Z,2.83
2018-01-08T03:20:35.964Z,2.80
2018-01-08T03:23:03.639Z,2.40
2018-01-08T03:25:29.801Z,2.60
2018-01-08T03:27:56.712Z,3.15
2018-01-08T03:30:22.920Z,2.70
2018-01-08T03:32:49.080Z,2.97
2018-01-08T03:35:15.316Z,2.58
2018-01-08T03:37:41.535Z,2.70
2018-01-08T03:40:07.713Z,3.05
2018-01-08T03:42:34.641Z,3.00
2018-01-08T03:45:00.848Z,3.00
2018-01-08T03:47:27.024Z,2.80
2018-01-08T03:49:53.207Z,2.78
2018-01-08T03:52:19.413Z,2.45
2018-01-08T03:54:45.588Z,2.45
2018-01-08T03:57:11.766Z,3.10
2018-01-08T03:59:38.721Z,2.05
2018-01-08T04:02:04.913Z,2.75
2018-01-08T04:04:31.137Z,2.55
2018-01-08T04:06:57.328Z,2.12
2018-01-08T04:09:24.237Z,2.45
2018-01-08T04:11:50.407Z,2.00
2018-01-08T04:14:17.332Z,2.75
2018-01-08T04:16:46.059Z,3.67
2018-01-08T04:19:12.247Z,2.60
2018-01-08T04:21:38.463Z,2.78
2018-01-08T04:24:04.674Z,2.25
2018-01-08T04:26:30.867Z,2.10
2018-01-08T04:28:57.820Z,2.85
2018-01-08T04:31:24.750Z,2.62
2018-01-08T04:33:50.942Z,2.83
2018-01-08T04:36:17.152Z,3.10
2018-01-08T04:38:43.360Z,2.60
2018-01-08T04:41:09.578Z,3.80
2018-01-08T04:43:35.835Z,3.10
2018-01-08T04:46:02.036Z,3.10
2018-01-08T04:48:28.206Z,2.87
2018-01-08T04:50:55.160Z,2.30
2018-01-08T04:53:22.100Z,2.50
2018-01-08T04:55:49.016Z,2.20
2018-01-08T04:58:15.232Z,1.90
2018-01-08T05:00:41.411Z,2.40
2018-01-08T05:03:07.597Z,2.75
2018-01-08T05:05:33.817Z,2.80
2018-01-08T05:08:00.008Z,2.60
2018-01-08T05:10:27.669Z,2.55
2018-01-08T05:12:53.892Z,2.90
2018-01-08T05:15:20.095Z,2.47
2018-01-08T05:17:46.588Z,3.00
2018-01-08T05:20:13.531Z,2.90
2018-01-08T05:22:39.716Z,2.60
2018-01-08T05:25:05.936Z,2.70
2018-01-08T05:27:32.168Z,2.90
2018-01-08T05:29:59.107Z,2.00
2018-01-08T05:32:26.069Z,2.42
2018-01-08T05:34:53.010Z,2.50
2018-01-08T05:37:19.961Z,2.92
2018-01-08T05:39:46.932Z,2.20
2018-01-08T05:42:13.158Z,1.80
2018-01-08T05:44:39.351Z,5.65
2018-01-08T05:47:05.545Z,4.65
2018-01-08T05:49:31.918Z,3.00
2018-01-08T05:51:58.100Z,2.37
2018-01-08T05:54:24.996Z,2.78
2018-01-08T05:56:51.188Z,2.22
2018-01-08T05:59:18.156Z,2.20
2018-01-08T06:01:45.053Z,2.40
2018-01-08T06:04:12.008Z,2.35
2018-01-08T06:06:38.163Z,2.55
2018-01-08T06:09:05.077Z,2.37
2018-01-08T06:11:31.248Z,2.10
2018-01-08T06:13:57.428Z,2.60
2018-01-08T06:16:23.615Z,2.28
2018-01-08T06:18:50.621Z,2.85
2018-01-08T06:21:16.796Z,2.65
2018-01-08T06:23:43.703Z,2.08
2018-01-08T06:26:09.892Z,2.28
2018-01-08T06:28:36.826Z,2.33
2018-01-08T06:31:03.746Z,2.37
2018-01-08T06:33:29.928Z,2.00
2018-01-08T06:35:56.825Z,2.03
2018-01-08T06:38:23.020Z,2.78
2018-01-08T06:40:49.206Z,2.65
2018-01-08T06:43:15.374Z,2.42
2018-01-08T06:45:41.559Z,2.92
2018-01-08T06:48:07.744Z,2.47
2018-01-08T06:50:34.683Z,2.75
2018-01-08T06:53:00.892Z,2.28
2018-01-08T06:55:27.097Z,2.60
2018-01-08T06:57:53.258Z,3.00
2018-01-08T07:00:19.440Z,2.70
2018-01-08T07:02:45.623Z,2.58
2018-01-08T07:05:11.788Z,3.15
2018-01-08T07:07:38.727Z,3.30
2018-01-08T07:10:05.660Z,2.45
2018-01-08T07:12:31.856Z,3.10
2018-01-08T07:14:58.096Z,3.00
2018-01-08T07:17:24.280Z,2.75
2018-01-08T07:19:51.463Z,3.05
2018-01-08T07:22:17.673Z,2.58
2018-01-08T07:24:44.634Z,2.87
2018-01-08T07:27:10.864Z,2.67
2018-01-08T07:29:37.048Z,2.80
2018-01-08T07:32:03.264Z,2.87
2018-01-08T07:34:29.449Z,3.10
2018-01-08T07:36:55.628Z,2.87
2018-01-08T07:39:21.828Z,3.20
2018-01-08T07:41:48.746Z,2.90
2018-01-08T07:44:14.950Z,3.50
2018-01-08T07:46:41.152Z,3.35
2018-01-08T07:49:08.086Z,2.50
2018-01-08T07:51:35.005Z,3.65
2018-01-08T07:54:01.292Z,3.80
2018-01-08T07:56:27.544Z,3.58
2018-01-08T07:58:53.723Z,3.45
2018-01-08T08:01:20.013Z,3.67
2018-01-08T08:03:46.229Z,3.30
2018-01-08T08:06:12.411Z,3.75
2018-01-08T08:08:38.628Z,4.00
2018-01-08T08:11:04.807Z,3.87
2018-01-08T08:13:30.992Z,3.08
2018-01-08T08:15:57.180Z,3.40
2018-01-08T08:18:23.368Z,3.87
2018-01-08T08:20:50.492Z,5.30
2018-01-08T08:23:16.711Z,3.75
2018-01-08T08:25:42.880Z,3.97
2018-01-08T08:28:09.060Z,3.90
2018-01-08T08:30:35.268Z,3.75
2018-01-08T08:33:01.424Z,4.15
2018-01-08T08:35:27.608Z,3.55
2018-01-08T08:37:53.811Z,3.90
2018-01-08T08:40:20.726Z,3.70
2018-01-08T08:42:46.932Z,3.80
2018-01-08T08:45:13.132Z,3.80
2018-01-08T08:47:40.052Z,4.12
2018-01-08T08:50:06.213Z,4.78
2018-01-08T08:52:33.141Z,4.47
2018-01-08T08:54:59.317Z,3.70
2018-01-08T08:57:25.491Z,4.05
2018-01-08T08:59:51.698Z,3.20
2018-01-08T09:02:17.887Z,3.75
2018-01-08T09:04:44.803Z,3.60
2018-01-08T09:07:10.980Z,4.30
2018-01-08T09:09:37.879Z,4.43
2018-01-08T09:12:04.048Z,3.87
2018-01-08T09:14:30.236Z,4.22
2018-01-08T09:16:56.429Z,4.18
2018-01-08T09:19:23.377Z,8.15
2018-01-08T09:21:50.444Z,3.62
2018-01-08T09:24:16.692Z,3.55
2018-01-08T09:26:42.856Z,3.58
2018-01-08T09:29:09.040Z,3.42
2018-01-08T09:31:35.958Z,3.37
2018-01-08T09:34:02.133Z,3.80
2018-01-08T09:36:28.328Z,3.33
2018-01-08T09:38:54.481Z,4.25
2018-01-08T09:41:20.640Z,3.75
2018-01-08T09:43:46.888Z,3.55
2018-01-08T09:46:13.064Z,2.95
2018-01-08T09:48:39.250Z,2.90
2018-01-08T09:51:05.420Z,2.75
2018-01-08T09:53:32.373Z,3.20
2018-01-08T09:55:58.576Z,3.20
2018-01-08T09:58:24.786Z,3.62
2018-01-08T10:00:51.038Z,2.35
2018-01-08T10:03:30.420Z,3.17
2018-01-08T10:06:09.770Z,3.60
2018-01-08T10:08:49.018Z,2.87
2018-01-08T10:11:27.690Z,1.92
2018-01-08T10:14:06.413Z,2.87
2018-01-08T10:16:44.992Z,2.20
2018-01-08T10:19:23.612Z,2.40
2018-01-08T10:21:49.815Z,2.62
2018-01-08T10:24:16.044Z,2.83
2018-01-08T10:26:42.988Z,2.80
2018-01-08T10:29:09.932Z,2.22
2018-01-08T10:31:36.112Z,2.30
2018-01-08T10:34:02.332Z,2.45
2018-01-08T10:36:28.502Z,4.00
2018-01-08T10:38:54.684Z,2.35
2018-01-08T10:41:27.752Z,2.22
2018-01-08T10:43:59.968Z,2.50
2018-01-08T10:46:32.368Z,2.30
2018-01-08T10:49:04.534Z,2.42
2018-01-08T10:51:36.923Z,2.58
2018-01-08T10:54:03.145Z,2.00
2018-01-08T10:56:29.339Z,1.73
2018-01-08T10:58:56.265Z,2.10
2018-01-08T11:01:29.272Z,1.90
2018-01-08T11:03:59.039Z,2.30
2018-01-08T11:06:25.236Z,2.00
2018-01-08T11:08:51.418Z,1.60
2018-01-08T11:11:17.632Z,2.45
2018-01-08T11:13:43.853Z,1.90
2018-01-08T11:16:10.051Z,2.90
2018-01-08T11:18:36.226Z,1.90
2018-01-08T11:21:02.428Z,2.00
2018-01-08T11:23:29.611Z,2.08
2018-01-08T11:25:55.861Z,1.40
2018-01-08T11:28:22.083Z,1.25
2018-01-08T11:30:48.251Z,1.27
2018-01-08T11:33:15.228Z,1.60
2018-01-08T11:35:42.152Z,1.15
2018-01-08T11:38:08.376Z,1.10
2018-01-08T11:40:34.586Z,1.23
2018-01-08T11:43:00.773Z,1.20
2018-01-08T11:45:27.727Z,1.08
2018-01-08T11:47:53.926Z,1.15
2018-01-08T11:50:20.100Z,1.30
2018-01-08T11:52:46.255Z,1.17
2018-01-08T11:55:12.470Z,1.80
2018-01-08T11:57:39.396Z,2.90
2018-01-08T12:00:05.579Z,1.30
2018-01-08T12:02:31.784Z,1.23
2018-01-08T12:04:58.017Z,1.35
2018-01-08T12:07:24.927Z,2.00
2018-01-08T12:09:51.914Z,1.25
2018-01-08T12:12:18.836Z,1.23
2018-01-08T12:14:45.024Z,1.30
2018-01-08T12:17:11.195Z,1.30
2018-01-08T12:19:37.374Z,1.95
2018-01-08T12:22:03.654Z,1.37
2018-01-08T12:24:29.927Z,1.83
2018-01-08T12:26:56.116Z,1.25
2018-01-08T12:29:22.344Z,1.30
2018-01-08T12:31:48.538Z,1.60
2018-01-08T12:34:14.725Z,1.40
2018-01-08T12:36:40.920Z,1.40
2018-01-08T12:39:07.872Z,1.60
2018-01-08T12:41:34.787Z,1.35
2018-01-08T12:44:00.996Z,1.30
2018-01-08T12:46:27.173Z,1.55
2018-01-08T12:48:54.103Z,1.30
2018-01-08T12:51:21.037Z,1.50
2018-01-08T12:53:47.224Z,1.35
2018-01-08T12:56:14.168Z,1.33
2018-01-08T12:58:41.127Z,1.75
2018-01-08T13:01:07.365Z,2.00
2018-01-08T13:03:33.568Z,1.60
2018-01-08T13:06:00.516Z,1.10
2018-01-08T13:08:26.776Z,1.50
2018-01-08T13:10:53.724Z,1.30
2018-01-08T13:13:20.637Z,1.35
2018-01-08T13:15:46.864Z,1.60
2018-01-08T13:18:13.068Z,1.83
2018-01-08T13:20:39.280Z,1.52
2018-01-08T13:23:05.489Z,1.35
2018-01-08T13:25:32.117Z,1.10
2018-01-08T13:27:58.304Z,2.20
2018-01-08T13:30:24.543Z,1.83
2018-01-08T13:32:50.727Z,1.25
2018-01-08T13:35:16.949Z,1.25
2018-01-08T13:37:43.151Z,1.10
2018-01-08T13:40:09.393Z,1.48
2018-01-08T13:42:35.587Z,1.40
2018-01-08T13:45:02.571Z,1.30
2018-01-08T13:47:28.769Z,1.52
2018-01-08T13:49:55.728Z,1.25
2018-01-08T13:52:21.976Z,2.03
2018-01-08T13:54:48.178Z,1.15
2018-01-08T13:57:14.404Z,1.55
2018-01-08T13:59:40.633Z,1.70
2018-01-08T14:02:06.848Z,1.27
2018-01-08T14:04:33.033Z,1.15
2018-01-08T14:06:59.956Z,2.05
2018-01-08T14:09:26.128Z,1.20
2018-01-08T14:11:53.053Z,2.03
2018-01-08T14:14:19.285Z,2.10
2018-01-08T14:16:46.240Z,1.80
2018-01-08T14:19:12.431Z,1.70
2018-01-08T14:21:38.644Z,1.65
2018-01-08T14:24:04.824Z,1.70
2018-01-08T14:26:31.098Z,1.67
2018-01-08T14:28:58.063Z,1.73
2018-01-08T14:31:24.272Z,1.30
2018-01-08T14:33:51.225Z,1.50
2018-01-08T14:36:17.431Z,1.30
2018-01-08T14:38:43.669Z,1.50
2018-01-08T14:41:10.653Z,1.90
2018-01-08T14:43:36.872Z,2.55
2018-01-08T14:46:03.792Z,1.77
2018-01-08T14:48:29.964Z,1.52
2018-01-08T14:50:56.919Z,1.92
2018-01-08T14:53:23.836Z,1.90
2018-01-08T14:55:50.032Z,2.00
2018-01-08T14:58:16.254Z,1.73
2018-01-08T15:00:42.477Z,1.90
2018-01-08T15:03:08.656Z,2.00
2018-01-08T15:05:34.888Z,2.15
2018-01-08T15:08:01.071Z,2.10
2018-01-08T15:10:27.280Z,1.70
2018-01-08T15:12:53.476Z,2.40
2018-01-08T15:15:19.667Z,2.22
2018-01-08T15:17:46.592Z,1.73
2018-01-08T15:20:12.805Z,2.03
2018-01-08T15:22:39.787Z,2.95
2018-01-08T15:25:05.975Z,2.03
2018-01-08T15:27:32.259Z,3.30
2018-01-08T15:29:58.507Z,1.80
2018-01-08T15:32:24.708Z,1.90
2018-01-08T15:34:50.976Z,2.55
2018-01-08T15:37:17.912Z,1.73
2018-01-08T15:39:44.844Z,2.08
2018-01-08T15:42:11.082Z,1.95
2018-01-08T15:44:37.250Z,2.20
2018-01-08T15:47:04.169Z,2.20
2018-01-08T15:49:30.367Z,2.47
2018-01-08T15:51:56.536Z,2.35
2018-01-08T15:54:22.724Z,2.87
2018-01-08T15:56:49.654Z,2.12
2018-01-08T15:59:16.590Z,2.33
2018-01-08T16:01:43.548Z,2.00
2018-01-08T16:04:10.674Z,2.70
2018-01-08T16:06:36.847Z,2.55
2018-01-08T16:09:03.074Z,1.98
2018-01-08T16:11:30.192Z,1.67
2018-01-08T16:13:56.375Z,2.15
2018-01-08T16:16:22.541Z,2.10
2018-01-08T16:18:48.736Z,2.37
2018-01-08T16:21:15.650Z,2.40
2018-01-08T16:23:41.876Z,2.20
2018-01-08T16:26:08.064Z,1.73
2018-01-08T16:28:34.333Z,1.90
2018-01-08T16:31:00.559Z,1.55
2018-01-08T16:33:26.788Z,2.20
2018-01-08T16:35:53.055Z,2.15
2018-01-08T16:38:19.243Z,2.17
2018-01-08T16:40:45.457Z,2.58
2018-01-08T16:43:12.386Z,1.87
2018-01-08T16:45:38.564Z,2.40
2018-01-08T16:48:04.787Z,2.28
2018-01-08T16:50:31.003Z,1.92
2018-01-08T16:52:57.917Z,1.80
2018-01-08T16:55:24.125Z,2.72
2018-01-08T16:57:50.329Z,2.10
2018-01-08T17:00:16.519Z,2.00
2018-01-08T17:02:42.751Z,1.90
2018-01-08T17:05:08.925Z,2.75
2018-01-08T17:07:35.124Z,2.40
2018-01-08T17:10:01.328Z,2.25
2018-01-08T17:12:27.544Z,2.00
2018-01-08T17:14:53.727Z,2.50
2018-01-08T17:17:19.989Z,2.60
2018-01-08T17:19:47.640Z,3.10
2018-01-08T17:22:14.613Z,1.95
2018-01-08T17:24:41.558Z,2.75
2018-01-08T17:27:08.505Z,1.98
2018-01-08T17:29:34.800Z,2.40
2018-01-08T17:32:01.000Z,2.00
2018-01-08T17:34:27.213Z,2.45
2018-01-08T17:36:54.124Z,2.33
2018-01-08T17:39:20.332Z,2.58
2018-01-08T17:41:46.494Z,2.33
2018-01-08T17:44:14.192Z,2.45
2018-01-08T17:46:41.166Z,1.95
2018-01-08T17:49:07.361Z,2.17
2018-01-08T17:51:33.532Z,2.75
2018-01-08T17:54:00.477Z,2.45
2018-01-08T17:56:27.412Z,2.42
2018-01-08T17:58:54.351Z,2.72
2018-01-08T18:01:21.352Z,2.35
2018-01-08T18:03:47.540Z,2.60
2018-01-08T18:06:13.724Z,2.75
2018-01-08T18:08:39.904Z,2.55
2018-01-08T18:11:06.099Z,2.10
2018-01-08T18:13:32.288Z,3.37
2018-01-08T18:15:59.216Z,2.00
2018-01-08T18:18:25.405Z,2.33
2018-01-08T18:20:51.595Z,2.50
2018-01-08T18:23:17.788Z,2.40
2018-01-08T18:25:43.982Z,2.50
2018-01-08T18:28:10.181Z,2.50
2018-01-08T18:30:36.465Z,2.90
2018-01-08T18:33:02.658Z,2.60
2018-01-08T18:35:28.876Z,2.35
2018-01-08T18:37:55.088Z,3.20
2018-01-08T18:40:21.293Z,2.65
2018-01-08T18:42:48.207Z,2.50
2018-01-08T18:45:14.405Z,3.15
2018-01-08T18:47:40.657Z,2.62
2018-01-08T18:50:06.840Z,2.65
2018-01-08T18:52:33.775Z,2.95
2018-01-08T18:54:59.952Z,3.70
2018-01-08T18:57:26.128Z,2.83
2018-01-08T18:59:52.354Z,3.08
2018-01-08T19:02:18.548Z,3.22
2018-01-08T19:04:44.735Z,3.05
2018-01-08T19:07:10.944Z,3.20
2018-01-08T19:09:37.172Z,2.70
2018-01-08T19:12:03.373Z,2.60
2018-01-08T19:14:29.593Z,4.22
2018-01-08T19:16:56.527Z,3.75
2018-01-08T19:19:23.488Z,3.40
2018-01-08T19:21:50.424Z,3.65
2018-01-08T19:24:17.356Z,3.60
2018-01-08T19:26:43.544Z,3.20
2018-01-08T19:29:09.753Z,3.42
2018-01-08T19:31:36.265Z,3.25
2018-01-08T19:34:02.476Z,2.95
2018-01-08T19:36:28.725Z,3.15
2018-01-08T19:38:54.933Z,3.17
2018-01-08T19:41:21.158Z,3.58
2018-01-08T19:43:47.358Z,2.80
2018-01-08T19:46:14.283Z,3.12
2018-01-08T19:48:40.468Z,3.47
2018-01-08T19:51:07.520Z,3.28
2018-01-08T19:53:34.456Z,3.60
2018-01-08T19:56:00.713Z,3.65
2018-01-08T19:58:26.915Z,3.45
2018-01-08T20:00:53.098Z,3.30
2018-01-08T20:03:19.303Z,2.90
2018-01-08T20:05:46.251Z,2.60
2018-01-08T20:08:12.464Z,2.60
2018-01-08T20:10:38.668Z,3.95
2018-01-08T20:13:04.853Z,3.10
2018-01-08T20:15:31.789Z,3.30
2018-01-08T20:17:58.653Z,2.80
2018-01-08T20:20:25.592Z,2.87
2018-01-08T20:22:51.794Z,3.35
2018-01-08T20:25:17.973Z,3.10
2018-01-08T20:27:44.184Z,2.70
2018-01-08T20:30:10.372Z,3.70
2018-01-08T20:32:36.640Z,3.20
2018-01-08T20:35:02.832Z,3.15
2018-01-08T20:37:29.072Z,3.42
2018-01-08T20:39:55.280Z,3.10
2018-01-08T20:42:23.152Z,3.50
2018-01-08T20:44:49.765Z,3.10
2018-01-08T20:47:15.973Z,3.08
2018-01-08T20:49:42.173Z,2.65
2018-01-08T20:52:08.367Z,3.10
2018-01-08T20:54:34.584Z,3.55
2018-01-08T20:57:01.556Z,3.47
2018-01-08T20:59:27.753Z,3.30
2018-01-08T21:01:53.942Z,3.33
2018-01-08T21:04:20.167Z,2.72
2018-01-08T21:06:46.360Z,3.40
2018-01-08T21:09:13.172Z,2.58
2018-01-08T21:11:39.385Z,2.87
2018-01-08T21:14:06.328Z,2.65
2018-01-08T21:16:32.526Z,3.05
2018-01-08T21:18:58.716Z,2.65
2018-01-08T21:21:24.941Z,3.12
2018-01-08T21:23:51.135Z,3.40
2018-01-08T21:26:17.368Z,3.22
2018-01-08T21:28:43.593Z,3.42
2018-01-08T21:31:09.809Z,3.67
2018-01-08T21:33:36.000Z,3.15
2018-01-08T21:36:02.206Z,2.75
2018-01-08T21:38:28.488Z,3.03
2018-01-08T21:40:55.436Z,3.67
2018-01-08T21:43:21.656Z,3.10
2018-01-08T21:45:47.848Z,3.15
2018-01-08T21:48:14.081Z,2.70
2018-01-08T21:50:40.276Z,2.60
2018-01-08T21:53:07.204Z,2.80
2018-01-08T21:55:33.387Z,2.53
2018-01-08T21:57:59.616Z,3.05
2018-01-08T22:00:25.856Z,3.15
2018-01-08T22:02:52.034Z,3.05
2018-01-08T22:05:18.228Z,2.87
2018-01-08T22:07:44.449Z,3.10
2018-01-08T22:10:10.701Z,3.50
2018-01-08T22:12:36.935Z,3.20
2018-01-08T22:15:03.159Z,3.20
2018-01-08T22:17:29.345Z,3.53
2018-01-08T22:19:55.601Z,3.58
2018-01-08T22:22:22.537Z,3.05
2018-01-08T22:24:48.721Z,2.22
2018-01-08T22:27:14.891Z,3.30
2018-01-08T22:29:41.096Z,3.55
2018-01-08T22:32:07.298Z,3.00
2018-01-08T22:34:33.495Z,2.58
2018-01-08T22:36:59.704Z,3.25
2018-01-08T22:39:28.223Z,2.95
2018-01-08T22:41:54.387Z,2.62
2018-01-08T22:44:20.620Z,2.90
2018-01-08T22:46:46.804Z,2.90
2018-01-08T22:49:12.981Z,2.85
2018-01-08T22:51:39.207Z,3.00
2018-01-08T22:54:07.593Z,3.25
2018-01-08T22:56:35.503Z,3.08
2018-01-08T22:59:03.381Z,2.90
2018-01-08T23:01:31.146Z,2.62
2018-01-08T23:03:59.677Z,3.05
2018-01-08T23:06:28.242Z,3.35
2018-01-08T23:08:56.180Z,2.97
2018-01-08T23:11:26.329Z,2.67
2018-01-08T23:13:56.460Z,2.70
2018-01-08T23:16:25.720Z,2.67
2018-01-08T23:18:55.140Z,2.60
2018-01-08T23:21:23.935Z,2.72
2018-01-08T23:23:52.411Z,2.75
2018-01-08T23:26:20.059Z,3.08
2018-01-08T23:28:48.783Z,2.58
2018-01-08T23:31:17.665Z,3.20
2018-01-08T23:33:46.398Z,2.78
2018-01-08T23:36:16.031Z,3.58
2018-01-08T23:38:44.556Z,2.67
2018-01-08T23:41:13.944Z,2.85
2018-01-08T23:43:42.016Z,3.15
2018-01-08T23:46:11.510Z,3.33
2018-01-08T23:48:40.345Z,2.83
2018-01-08T23:51:09.893Z,3.70
2018-01-08T23:53:37.699Z,2.90
2018-01-08T23:56:05.635Z,2.97
2018-01-08T23:58:33.431Z,3.47
